Soquel, California
Current Conditions -  °F | °C
As of 3:53 PM on Wednesday 26 Nov 2014 (Local Time) from KWVI Reporting Station
Clear Clear  
Wind Chill: 74°   Ceiling: Unl
Heat Index: 74°   Visibility: 10mi
Dew Point: 39°   Wind: 5mph
Humidity: 28%   Direction: 230°SW
Pressure: 30.19"   Gusts: NA
Location:  36.99°N, 121.95°W
Report Text: KWVI 262353Z AUTO 23004KT 10SM CLR 23/04 A3019 RMK AO2 SLP224 T02330039 10267 20172
Loading
Personal Weather Stations






























Interactive Weather Map New forecast layout! Learn more

10-Day Weather Forecast

Advertisements
Track Severe Weather on mobile